Time;durP1;ratioP1;P1;durP2;ratioP2;P2;SDS_P1;SDS_P2;PMS_P1;PMS_P2;Temp;Humidity;BMP_temperature;BMP_pressure;BME280_temperature;BME280_humidity;BME280_pressure;Samples;Min_cycle;Max_cycle;Signal;HPM_P1;HPM_P2
2023/05/14 00:00:59;;;;;;;5.22;2.13;;;;;;;;;;5076462;28;20052;-89
2023/05/14 00:03:25;;;;;;;4.25;2.38;;;;;;;;;;5080853;28;20078;-88
2023/05/14 00:05:51;;;;;;;3.03;1.90;;;;;;;;;;5081058;28;20035;-86
2023/05/14 00:08:16;;;;;;;2.35;1.63;;;;;;;;;;5082041;28;20380;-89
2023/05/14 00:10:41;;;;;;;2.47;1.92;;;;;;;;;;5083785;28;20028;-87
2023/05/14 00:13:07;;;;;;;2.95;1.52;;;;;;;;;;5084036;28;20096;-89
2023/05/14 00:15:32;;;;;;;2.45;1.63;;;;;;;;;;5080412;28;20036;-87
2023/05/14 00:17:58;;;;;;;4.10;1.83;;;;;;;;;;5082124;28;20025;-89
2023/05/14 00:20:23;;;;;;;2.15;1.27;;;;;;;;;;5082583;28;20471;-87
2023/05/14 00:22:48;;;;;;;3.15;1.60;;;;;;;;;;5081179;28;20118;-87
2023/05/14 00:25:14;;;;;;;2.30;1.70;;;;;;;;;;5088313;28;20020;-87
2023/05/14 00:27:39;;;;;;;3.88;1.75;;;;;;;;;;5082367;28;20032;-85
2023/05/14 00:30:08;;;;;;;2.95;1.63;;;;;;;;;;5084050;28;20028;-89
2023/05/14 00:32:33;;;;;;;2.55;1.70;;;;;;;;;;5081791;28;20375;-87
2023/05/14 00:34:59;;;;;;;2.45;1.80;;;;;;;;;;5078560;28;20032;-86
2023/05/14 00:37:25;;;;;;;2.97;1.63;;;;;;;;;;5087018;28;21671;-86
2023/05/14 00:39:50;;;;;;;2.33;1.88;;;;;;;;;;5085890;28;20388;-85
2023/05/14 00:42:16;;;;;;;3.15;1.67;;;;;;;;;;5085497;28;20024;-85
2023/05/14 00:44:41;;;;;;;2.40;1.52;;;;;;;;;;5083593;28;20056;-87
2023/05/14 00:47:07;;;;;;;3.03;1.75;;;;;;;;;;5081497;28;20032;-83
2023/05/14 00:49:33;;;;;;;3.28;1.70;;;;;;;;;;5081720;28;20031;-88
2023/05/14 00:51:59;;;;;;;1.85;1.48;;;;;;;;;;5084060;28;20104;-88
2023/05/14 00:54:25;;;;;;;4.32;1.70;;;;;;;;;;5078224;28;20020;-85
2023/05/14 00:56:51;;;;;;;2.90;1.63;;;;;;;;;;5076368;28;20058;-85
2023/05/14 00:59:17;;;;;;;3.35;1.60;;;;;;;;;;5119643;27;20401;-87
2023/05/14 01:01:42;;;;;;;2.80;1.85;;;;;;;;;;5079979;28;20044;-88
2023/05/14 01:04:09;;;;;;;2.22;1.45;;;;;;;;;;5079242;28;20071;-83
2023/05/14 01:06:54;;;;;;;7.60;2.00;;;;;;;;;;5078521;28;20055;-87
2023/05/14 01:09:41;;;;;;;3.45;1.77;;;;;;;;;;5083091;28;20040;-85
2023/05/14 01:12:22;;;;;;;2.55;1.60;;;;;;;;;;5080415;28;20027;-85
2023/05/14 01:14:50;;;;;;;2.47;1.42;;;;;;;;;;5083555;28;20099;-85
2023/05/14 01:17:18;;;;;;;5.18;2.33;;;;;;;;;;5080168;28;20029;-84
2023/05/14 01:19:46;;;;;;;4.38;2.15;;;;;;;;;;5079395;28;20020;-81
2023/05/14 01:22:12;;;;;;;3.72;2.00;;;;;;;;;;5078868;28;20032;-86
2023/05/14 01:24:38;;;;;;;3.55;2.05;;;;;;;;;;5084072;28;20059;-83
2023/05/14 01:27:17;;;;;;;2.13;1.73;;;;;;;;;;5086108;28;20068;-85
2023/05/14 01:29:52;;;;;;;2.08;1.65;;;;;;;;;;5077798;28;20028;-82
2023/05/14 01:32:19;;;;;;;3.15;2.10;;;;;;;;;;5082745;28;20029;-83
2023/05/14 01:34:47;;;;;;;2.67;1.90;;;;;;;;;;5079817;28;20028;-85
2023/05/14 01:37:13;;;;;;;3.47;1.67;;;;;;;;;;5081832;28;20074;-86
2023/05/14 01:39:40;;;;;;;3.35;1.92;;;;;;;;;;5079845;28;20484;-87
2023/05/14 01:42:07;;;;;;;2.97;1.83;;;;;;;;;;5074979;28;20020;-87
2023/05/14 01:44:32;;;;;;;3.33;1.98;;;;;;;;;;5078471;28;20039;-85
2023/05/14 01:46:57;;;;;;;2.83;1.63;;;;;;;;;;5079508;28;20023;-83
2023/05/14 01:49:23;;;;;;;2.00;1.63;;;;;;;;;;5082928;28;20031;-84
2023/05/14 01:51:48;;;;;;;4.70;2.25;;;;;;;;;;5081480;28;20082;-84
2023/05/14 01:54:14;;;;;;;4.05;1.80;;;;;;;;;;5080609;28;20023;-84
2023/05/14 01:56:39;;;;;;;2.30;1.40;;;;;;;;;;5083738;28;20024;-87
2023/05/14 01:59:05;;;;;;;6.53;2.35;;;;;;;;;;5078347;28;20059;-83
2023/05/14 02:01:30;;;;;;;2.33;1.60;;;;;;;;;;5078152;28;20025;-86
2023/05/14 02:03:56;;;;;;;3.00;1.67;;;;;;;;;;5082756;28;20024;-85
2023/05/14 02:06:21;;;;;;;3.38;1.95;;;;;;;;;;5081405;28;20044;-87
2023/05/14 02:08:46;;;;;;;3.70;1.75;;;;;;;;;;5081180;28;20024;-86
2023/05/14 02:11:12;;;;;;;3.17;2.20;;;;;;;;;;5077739;28;20035;-86
2023/05/14 02:13:37;;;;;;;2.08;1.27;;;;;;;;;;5080015;28;20042;-83
2023/05/14 02:16:03;;;;;;;2.38;1.58;;;;;;;;;;5082580;28;20028;-86
2023/05/14 02:18:28;;;;;;;4.03;1.70;;;;;;;;;;5083054;28;20081;-86
2023/05/14 02:20:54;;;;;;;3.20;1.95;;;;;;;;;;5082936;28;20378;-86
2023/05/14 02:23:19;;;;;;;3.47;1.63;;;;;;;;;;5080118;28;20032;-84
2023/05/14 02:25:44;;;;;;;1.90;1.50;;;;;;;;;;5079944;28;20047;-83
2023/05/14 02:28:10;;;;;;;2.50;1.80;;;;;;;;;;5079440;28;20391;-85
2023/05/14 02:30:35;;;;;;;1.73;1.58;;;;;;;;;;5077661;28;20064;-85
2023/05/14 02:33:01;;;;;;;2.72;1.80;;;;;;;;;;5083417;28;20020;-86
2023/05/14 02:35:26;;;;;;;2.72;1.50;;;;;;;;;;5084765;28;20429;-85
2023/05/14 02:37:52;;;;;;;2.42;1.55;;;;;;;;;;5082135;28;20100;-89
2023/05/14 02:40:17;;;;;;;2.72;1.75;;;;;;;;;;5077982;28;20365;-84
2023/05/14 02:42:43;;;;;;;1.95;1.30;;;;;;;;;;5079302;28;20089;-87
2023/05/14 02:45:09;;;;;;;2.60;1.50;;;;;;;;;;5077899;28;20142;-85
2023/05/14 02:47:35;;;;;;;2.72;2.08;;;;;;;;;;5082513;28;20103;-86
2023/05/14 02:50:00;;;;;;;2.10;1.55;;;;;;;;;;5082234;28;20021;-85
2023/05/14 02:52:25;;;;;;;3.10;2.03;;;;;;;;;;5081080;28;20113;-88
2023/05/14 02:54:52;;;;;;;4.10;2.45;;;;;;;;;;5079142;28;20030;-87
2023/05/14 02:57:17;;;;;;;4.07;1.92;;;;;;;;;;5078059;28;20067;-87
2023/05/14 02:59:42;;;;;;;4.25;2.30;;;;;;;;;;5077863;28;20028;-87
2023/05/14 03:02:08;;;;;;;3.17;2.05;;;;;;;;;;5079121;28;20027;-85
2023/05/14 03:04:33;;;;;;;6.78;1.95;;;;;;;;;;5077862;28;20035;-89
2023/05/14 03:06:58;;;;;;;2.58;1.60;;;;;;;;;;5078640;28;20107;-87
2023/05/14 03:09:24;;;;;;;2.55;2.00;;;;;;;;;;5077953;28;20468;-86
2023/05/14 03:11:49;;;;;;;1.95;1.38;;;;;;;;;;5077801;28;20028;-88
2023/05/14 03:14:15;;;;;;;3.47;2.08;;;;;;;;;;5076798;28;20073;-85
2023/05/14 03:16:41;;;;;;;7.60;2.13;;;;;;;;;;5081062;28;20468;-89
2023/05/14 03:19:06;;;;;;;2.08;1.63;;;;;;;;;;5080836;28;20391;-85
2023/05/14 03:21:32;;;;;;;2.63;1.63;;;;;;;;;;5079811;28;20020;-85
2023/05/14 03:23:57;;;;;;;5.50;2.25;;;;;;;;;;5075666;28;20027;-83
2023/05/14 03:26:23;;;;;;;3.67;2.22;;;;;;;;;;5082662;28;20362;-87
2023/05/14 03:28:49;;;;;;;3.40;1.92;;;;;;;;;;5085201;28;20060;-86
2023/05/14 03:31:15;;;;;;;3.42;2.15;;;;;;;;;;5079525;28;20020;-86
2023/05/14 03:33:40;;;;;;;2.33;1.35;;;;;;;;;;5079814;28;20016;-86
2023/05/14 03:36:06;;;;;;;5.75;2.15;;;;;;;;;;5076359;28;20025;-87
2023/05/14 03:38:31;;;;;;;3.83;2.00;;;;;;;;;;5080206;28;20045;-84
2023/05/14 03:40:56;;;;;;;3.35;1.90;;;;;;;;;;5086928;28;20090;-88
2023/05/14 03:43:22;;;;;;;3.67;1.80;;;;;;;;;;5083040;28;20028;-86
2023/05/14 03:45:51;;;;;;;3.30;1.95;;;;;;;;;;5085081;28;20513;-86
2023/05/14 03:48:19;;;;;;;4.75;2.83;;;;;;;;;;5085334;28;20368;-86
2023/05/14 03:50:45;;;;;;;3.00;1.85;;;;;;;;;;5083410;28;20029;-85
2023/05/14 03:53:10;;;;;;;3.72;2.25;;;;;;;;;;5082010;28;20082;-85
2023/05/14 03:55:36;;;;;;;2.78;1.80;;;;;;;;;;5086716;28;20031;-86
2023/05/14 03:58:01;;;;;;;3.42;1.60;;;;;;;;;;5085670;28;20036;-86
2023/05/14 04:00:27;;;;;;;3.70;2.00;;;;;;;;;;5073860;28;20078;-86
2023/05/14 04:02:53;;;;;;;5.30;2.20;;;;;;;;;;5083271;28;20463;-87
2023/05/14 04:05:18;;;;;;;3.80;1.67;;;;;;;;;;5086207;28;20069;-86
2023/05/14 04:07:45;;;;;;;3.78;2.20;;;;;;;;;;5086534;28;20033;-87
2023/05/14 04:10:12;;;;;;;4.07;1.58;;;;;;;;;;5083008;28;20020;-86
2023/05/14 04:12:37;;;;;;;2.47;1.73;;;;;;;;;;5081156;28;20464;-86
2023/05/14 04:15:04;;;;;;;4.20;2.15;;;;;;;;;;5081184;28;20073;-86
2023/05/14 04:17:29;;;;;;;4.13;2.22;;;;;;;;;;5083726;28;20416;-89
2023/05/14 04:19:54;;;;;;;5.30;2.05;;;;;;;;;;5078951;28;20112;-86
2023/05/14 04:22:20;;;;;;;4.32;2.70;;;;;;;;;;5084280;28;20099;-86
2023/05/14 04:24:45;;;;;;;2.10;1.40;;;;;;;;;;5076998;28;20016;-87
2023/05/14 04:27:18;;;;;;;2.53;1.73;;;;;;;;;;5082945;28;20067;-87
2023/05/14 04:29:43;;;;;;;3.58;1.88;;;;;;;;;;5083169;28;20031;-89
2023/05/14 04:32:09;;;;;;;1.98;1.33;;;;;;;;;;5086288;28;20092;-86
2023/05/14 04:34:35;;;;;;;2.45;1.73;;;;;;;;;;5081868;28;20128;-85
2023/05/14 04:37:01;;;;;;;2.63;1.80;;;;;;;;;;5076206;28;20334;-84
2023/05/14 04:39:27;;;;;;;2.50;1.60;;;;;;;;;;5084225;28;20467;-87
2023/05/14 04:41:53;;;;;;;2.65;1.80;;;;;;;;;;5082627;28;20040;-84
2023/05/14 04:44:18;;;;;;;2.50;1.98;;;;;;;;;;5086790;28;20031;-85
2023/05/14 04:46:44;;;;;;;4.05;2.22;;;;;;;;;;5083022;28;20107;-85
2023/05/14 04:49:09;;;;;;;3.83;1.60;;;;;;;;;;5079706;28;20027;-86
2023/05/14 04:51:35;;;;;;;5.30;2.00;;;;;;;;;;5087231;28;20031;-85
2023/05/14 04:54:00;;;;;;;3.10;2.30;;;;;;;;;;5083097;28;20107;-86
2023/05/14 04:56:25;;;;;;;3.63;2.10;;;;;;;;;;5077845;28;20047;-85
2023/05/14 04:58:51;;;;;;;3.83;2.10;;;;;;;;;;5082131;28;20027;-86
2023/05/14 05:01:16;;;;;;;3.55;2.40;;;;;;;;;;5080637;28;20427;-88
2023/05/14 05:03:42;;;;;;;2.78;2.45;;;;;;;;;;5082000;28;20118;-90
2023/05/14 05:06:07;;;;;;;5.07;2.92;;;;;;;;;;5082470;28;20024;-84
2023/05/14 05:08:32;;;;;;;3.45;2.15;;;;;;;;;;5084621;28;20358;-84
2023/05/14 05:10:58;;;;;;;6.40;3.20;;;;;;;;;;5082521;28;20031;-81
2023/05/14 05:13:23;;;;;;;4.70;2.47;;;;;;;;;;5079599;28;20514;-84
2023/05/14 05:15:48;;;;;;;3.58;2.63;;;;;;;;;;5083250;28;20020;-83
2023/05/14 05:18:14;;;;;;;3.83;1.95;;;;;;;;;;5082214;28;20028;-83
2023/05/14 05:20:39;;;;;;;4.30;2.63;;;;;;;;;;5079485;28;20047;-83
2023/05/14 05:23:05;;;;;;;3.50;2.28;;;;;;;;;;5078614;28;20017;-84
2023/05/14 05:25:30;;;;;;;4.13;2.90;;;;;;;;;;5086105;28;20023;-85
2023/05/14 05:27:56;;;;;;;6.15;2.45;;;;;;;;;;5079658;28;20345;-85
2023/05/14 05:30:21;;;;;;;5.13;3.05;;;;;;;;;;5079904;28;20020;-85
2023/05/14 05:32:47;;;;;;;3.33;2.22;;;;;;;;;;5080510;28;20016;-84
2023/05/14 05:35:12;;;;;;;3.40;2.70;;;;;;;;;;5080624;28;20158;-84
2023/05/14 05:37:37;;;;;;;5.82;2.78;;;;;;;;;;5079705;28;20044;-84
2023/05/14 05:40:04;;;;;;;5.30;2.97;;;;;;;;;;5079631;28;20027;-84
2023/05/14 05:42:30;;;;;;;3.67;2.75;;;;;;;;;;5078823;28;20388;-84
2023/05/14 05:44:55;;;;;;;3.97;2.55;;;;;;;;;;5079607;28;20020;-84
2023/05/14 05:47:21;;;;;;;3.70;2.65;;;;;;;;;;5081590;28;20031;-83
2023/05/14 05:49:46;;;;;;;2.42;1.98;;;;;;;;;;5078581;28;20023;-83
2023/05/14 05:52:12;;;;;;;5.75;3.35;;;;;;;;;;5080308;28;20048;-84
2023/05/14 05:54:38;;;;;;;5.30;2.95;;;;;;;;;;5075332;28;20712;-84
2023/05/14 05:57:04;;;;;;;5.22;3.33;;;;;;;;;;5079139;28;20081;-84
2023/05/14 05:59:29;;;;;;;3.78;2.47;;;;;;;;;;5083202;28;20020;-84
2023/05/14 06:01:56;;;;;;;8.02;3.85;;;;;;;;;;5079476;28;20114;-83
2023/05/14 06:04:21;;;;;;;5.80;3.30;;;;;;;;;;5080559;28;20361;-83
2023/05/14 06:06:47;;;;;;;9.45;4.80;;;;;;;;;;5075519;28;20082;-83
2023/05/14 06:09:12;;;;;;;6.40;3.50;;;;;;;;;;5073772;28;20035;-83
2023/05/14 06:11:37;;;;;;;15.45;4.07;;;;;;;;;;5082459;28;20020;-84
2023/05/14 06:14:03;;;;;;;4.85;3.08;;;;;;;;;;5075070;28;20028;-83
2023/05/14 06:16:29;;;;;;;3.75;2.63;;;;;;;;;;5082331;28;20017;-84
2023/05/14 06:18:54;;;;;;;6.03;3.08;;;;;;;;;;5081853;28;20020;-83
2023/05/14 06:21:20;;;;;;;4.35;2.92;;;;;;;;;;5077605;28;20048;-82
2023/05/14 06:23:45;;;;;;;3.00;2.42;;;;;;;;;;5074433;28;20020;-82
2023/05/14 06:26:11;;;;;;;4.05;2.80;;;;;;;;;;5074621;28;20632;-82
2023/05/14 06:28:36;;;;;;;7.13;3.72;;;;;;;;;;5076786;28;20028;-82
2023/05/14 06:31:02;;;;;;;3.65;2.97;;;;;;;;;;5083785;28;20688;-82
2023/05/14 06:33:30;;;;;;;9.15;4.97;;;;;;;;;;5067338;28;20021;-81
2023/05/14 06:35:57;;;;;;;11.15;5.20;;;;;;;;;;5078782;28;20411;-83
2023/05/14 06:38:23;;;;;;;6.60;3.72;;;;;;;;;;5081963;28;20570;-82
2023/05/14 06:40:49;;;;;;;5.50;3.40;;;;;;;;;;5080997;28;20020;-81
2023/05/14 06:43:14;;;;;;;6.13;3.28;;;;;;;;;;5074207;28;20069;-82
2023/05/14 06:45:40;;;;;;;5.03;3.35;;;;;;;;;;5077429;28;20017;-80
2023/05/14 06:48:05;;;;;;;5.32;3.40;;;;;;;;;;5086989;28;20498;-82
2023/05/14 06:50:30;;;;;;;7.32;3.75;;;;;;;;;;5075354;28;20392;-82
2023/05/14 06:52:56;;;;;;;8.38;4.25;;;;;;;;;;5076046;28;20034;-80
2023/05/14 06:55:22;;;;;;;5.07;3.53;;;;;;;;;;5069267;28;20036;-80
2023/05/14 06:57:47;;;;;;;6.30;4.00;;;;;;;;;;5078193;28;20031;-81
2023/05/14 07:00:13;;;;;;;5.13;3.10;;;;;;;;;;5077404;28;20029;-85
2023/05/14 07:02:39;;;;;;;6.28;3.58;;;;;;;;;;5080003;28;20031;-84
2023/05/14 07:05:04;;;;;;;5.47;3.22;;;;;;;;;;5077297;28;20104;-82
2023/05/14 07:07:30;;;;;;;4.38;2.90;;;;;;;;;;5076342;28;20032;-82
2023/05/14 07:09:55;;;;;;;7.65;3.15;;;;;;;;;;5074673;28;20071;-83
2023/05/14 07:12:21;;;;;;;7.75;3.88;;;;;;;;;;5081200;28;20032;-83
2023/05/14 07:14:47;;;;;;;6.63;3.45;;;;;;;;;;5075392;28;20479;-82
2023/05/14 07:17:13;;;;;;;4.80;3.08;;;;;;;;;;5081335;28;20021;-83
2023/05/14 07:19:39;;;;;;;6.75;3.03;;;;;;;;;;5080501;28;20490;-82
2023/05/14 07:22:05;;;;;;;4.10;2.92;;;;;;;;;;5084884;28;20131;-82
2023/05/14 07:24:30;;;;;;;4.78;3.00;;;;;;;;;;5082338;28;20037;-82
2023/05/14 07:26:56;;;;;;;5.82;3.15;;;;;;;;;;5090585;28;20060;-83
2023/05/14 07:29:22;;;;;;;5.07;4.10;;;;;;;;;;5075530;28;20125;-82
2023/05/14 07:31:47;;;;;;;4.38;2.83;;;;;;;;;;5086957;28;20031;-80
2023/05/14 07:34:12;;;;;;;5.38;3.58;;;;;;;;;;5086293;28;20027;-82
2023/05/14 07:36:38;;;;;;;5.70;3.50;;;;;;;;;;5081266;28;20031;-83
2023/05/14 07:39:03;;;;;;;7.15;3.97;;;;;;;;;;5081574;28;20040;-80
2023/05/14 07:41:29;;;;;;;6.57;3.70;;;;;;;;;;5079739;28;20362;-79
2023/05/14 07:43:55;;;;;;;6.57;4.10;;;;;;;;;;5074048;28;20026;-80
2023/05/14 07:46:20;;;;;;;6.65;4.30;;;;;;;;;;5076337;28;20021;-80
2023/05/14 07:48:46;;;;;;;6.22;4.53;;;;;;;;;;5075178;28;20468;-83
2023/05/14 07:51:11;;;;;;;12.65;6.15;;;;;;;;;;5079354;28;20352;-80
2023/05/14 07:53:36;;;;;;;16.10;7.40;;;;;;;;;;5074457;28;20044;-81
2023/05/14 07:56:02;;;;;;;11.57;7.18;;;;;;;;;;5082823;28;20023;-79
2023/05/14 07:58:27;;;;;;;9.70;5.65;;;;;;;;;;5084801;28;20037;-81
2023/05/14 08:00:53;;;;;;;11.18;5.35;;;;;;;;;;5073883;28;20380;-79
2023/05/14 08:03:18;;;;;;;19.70;4.95;;;;;;;;;;5086308;28;20033;-79
2023/05/14 08:05:44;;;;;;;7.63;4.70;;;;;;;;;;5074893;28;20032;-80
2023/05/14 08:08:11;;;;;;;5.90;3.17;;;;;;;;;;5073654;28;20032;-81
2023/05/14 08:10:36;;;;;;;4.35;3.13;;;;;;;;;;5070326;28;20368;-80
2023/05/14 08:13:02;;;;;;;4.97;3.00;;;;;;;;;;5074550;28;20029;-80
2023/05/14 08:15:27;;;;;;;4.78;3.05;;;;;;;;;;5070509;28;20036;-83
2023/05/14 08:17:52;;;;;;;6.93;3.67;;;;;;;;;;5072470;28;20029;-82
2023/05/14 08:20:18;;;;;;;6.80;3.42;;;;;;;;;;5078793;28;20032;-82
2023/05/14 08:22:43;;;;;;;7.30;3.30;;;;;;;;;;5083432;28;20035;-83
2023/05/14 08:25:09;;;;;;;4.88;3.25;;;;;;;;;;5086891;28;20099;-82
2023/05/14 08:27:34;;;;;;;4.65;3.20;;;;;;;;;;5078653;28;20038;-82
2023/05/14 08:30:00;;;;;;;5.93;4.03;;;;;;;;;;5081195;28;20028;-82
2023/05/14 08:32:25;;;;;;;6.18;3.22;;;;;;;;;;5078000;28;20112;-81
2023/05/14 08:34:51;;;;;;;6.50;3.65;;;;;;;;;;5079603;28;20055;-81
2023/05/14 08:37:16;;;;;;;6.75;3.65;;;;;;;;;;5084691;28;20040;-81
2023/05/14 08:39:42;;;;;;;6.25;3.50;;;;;;;;;;5090482;28;20040;-81
2023/05/14 08:42:11;;;;;;;5.32;3.40;;;;;;;;;;5073881;28;20033;-81
2023/05/14 08:45:04;;;;;;;9.18;4.18;;;;;;;;;;5064863;28;20028;-82
2023/05/14 08:47:30;;;;;;;7.70;4.22;;;;;;;;;;5074188;27;20043;-81
2023/05/14 08:50:05;;;;;;;6.75;3.72;;;;;;;;;;5071996;28;20032;-82
2023/05/14 08:52:31;;;;;;;4.70;3.15;;;;;;;;;;5073243;28;20035;-80
2023/05/14 08:55:03;;;;;;;5.60;3.83;;;;;;;;;;5080663;28;20443;-81
2023/05/14 08:57:30;;;;;;;4.20;2.65;;;;;;;;;;5074847;28;20028;-79
2023/05/14 08:59:56;;;;;;;4.43;3.00;;;;;;;;;;5079189;28;20020;-81
2023/05/14 09:02:29;;;;;;;5.82;3.20;;;;;;;;;;5070262;28;20036;-82
2023/05/14 09:04:57;;;;;;;5.40;3.42;;;;;;;;;;5077169;28;20027;-81
2023/05/14 09:07:23;;;;;;;7.68;4.63;;;;;;;;;;5072936;28;20476;-81
2023/05/14 09:09:50;;;;;;;5.22;3.15;;;;;;;;;;5076857;28;20032;-80
2023/05/14 09:12:15;;;;;;;3.80;2.47;;;;;;;;;;5079421;28;20024;-81
2023/05/14 09:14:41;;;;;;;5.80;3.05;;;;;;;;;;5073882;28;20524;-81
2023/05/14 09:17:07;;;;;;;5.32;3.05;;;;;;;;;;5066901;28;20465;-80
2023/05/14 09:19:33;;;;;;;6.85;3.05;;;;;;;;;;5075054;28;20035;-82
2023/05/14 09:21:58;;;;;;;7.60;3.70;;;;;;;;;;5080066;28;20101;-82
2023/05/14 09:24:27;;;;;;;4.22;3.08;;;;;;;;;;5077318;28;20039;-82
2023/05/14 09:26:55;;;;;;;6.60;4.03;;;;;;;;;;5071053;28;20024;-83
2023/05/14 09:29:24;;;;;;;4.82;3.28;;;;;;;;;;5066405;28;20047;-82
2023/05/14 09:31:51;;;;;;;4.87;3.23;;;;;;;;;;5087163;28;20051;-81
2023/05/14 09:34:26;;;;;;;3.97;2.60;;;;;;;;;;5073763;28;20029;-82
2023/05/14 09:37:02;;;;;;;4.88;2.65;;;;;;;;;;5070295;28;20060;-82
2023/05/14 09:39:28;;;;;;;5.55;3.00;;;;;;;;;;5074636;28;20467;-81
2023/05/14 09:41:55;;;;;;;3.13;2.22;;;;;;;;;;5079306;28;20119;-82
2023/05/14 09:44:21;;;;;;;3.65;2.50;;;;;;;;;;5078852;28;20056;-82
2023/05/14 09:46:49;;;;;;;5.22;3.60;;;;;;;;;;5074731;28;20024;-81
2023/05/14 09:49:15;;;;;;;4.65;2.97;;;;;;;;;;5072220;28;20103;-81
2023/05/14 09:51:41;;;;;;;4.25;2.67;;;;;;;;;;5066708;28;20592;-82
2023/05/14 09:54:07;;;;;;;5.35;3.47;;;;;;;;;;5079991;28;20357;-81
2023/05/14 09:56:33;;;;;;;5.07;3.33;;;;;;;;;;5071793;28;20074;-82
2023/05/14 09:58:59;;;;;;;3.38;2.63;;;;;;;;;;5075340;28;20443;-81
2023/05/14 10:01:27;;;;;;;4.65;3.08;;;;;;;;;;5079729;28;20063;-81
2023/05/14 10:03:54;;;;;;;3.80;2.78;;;;;;;;;;5072844;28;20381;-84
2023/05/14 10:06:24;;;;;;;8.23;3.78;;;;;;;;;;5081820;28;20088;-82
2023/05/14 10:08:54;;;;;;;4.55;2.42;;;;;;;;;;5077291;28;20032;-83
2023/05/14 10:11:26;;;;;;;4.15;2.38;;;;;;;;;;5075459;28;20039;-83
2023/05/14 10:14:19;;;;;;;2.97;2.50;;;;;;;;;;5071593;28;20044;-83
2023/05/14 10:16:52;;;;;;;4.10;2.78;;;;;;;;;;5079285;28;20028;-83
2023/05/14 10:19:22;;;;;;;5.10;2.85;;;;;;;;;;5077158;28;20031;-83
2023/05/14 10:21:52;;;;;;;6.03;3.17;;;;;;;;;;5079768;28;20024;-82
2023/05/14 10:24:18;;;;;;;5.05;3.55;;;;;;;;;;5071936;28;20057;-84
2023/05/14 10:26:45;;;;;;;6.10;3.63;;;;;;;;;;5087703;28;20510;-83
2023/05/14 10:29:11;;;;;;;7.28;4.20;;;;;;;;;;5076539;28;20020;-82
2023/05/14 10:31:47;;;;;;;4.88;3.33;;;;;;;;;;5083404;28;20369;-83
2023/05/14 10:34:36;;;;;;;5.05;2.78;;;;;;;;;;5070603;28;20051;-81
2023/05/14 10:37:02;;;;;;;4.10;2.70;;;;;;;;;;5076403;28;20071;-82
2023/05/14 10:39:47;;;;;;;5.38;2.75;;;;;;;;;;5071097;28;20038;-82
2023/05/14 10:42:18;;;;;;;5.47;3.03;;;;;;;;;;5074209;28;20025;-82
2023/05/14 10:44:57;;;;;;;4.47;2.95;;;;;;;;;;5083114;28;20028;-81
2023/05/14 10:47:28;;;;;;;6.43;4.05;;;;;;;;;;5074424;28;20021;-81
2023/05/14 10:50:02;;;;;;;5.53;3.08;;;;;;;;;;5081639;28;20093;-82
2023/05/14 10:52:28;;;;;;;4.80;3.38;;;;;;;;;;5076380;28;20075;-82
2023/05/14 10:55:02;;;;;;;5.50;3.42;;;;;;;;;;5078084;28;20682;-80
2023/05/14 10:57:30;;;;;;;5.30;3.40;;;;;;;;;;5074743;28;20386;-82
2023/05/14 10:59:58;;;;;;;4.85;3.53;;;;;;;;;;5073873;28;20021;-81
2023/05/14 11:02:31;;;;;;;4.45;3.13;;;;;;;;;;5072083;28;20476;-81
2023/05/14 11:05:09;;;;;;;8.63;5.78;;;;;;;;;;5080548;28;20483;-82
2023/05/14 11:07:36;;;;;;;7.50;4.45;;;;;;;;;;5080710;28;20485;-82
2023/05/14 11:10:06;;;;;;;6.15;3.47;;;;;;;;;;5074020;28;20484;-81
2023/05/14 11:12:33;;;;;;;11.35;5.90;;;;;;;;;;5076015;28;20028;-80
2023/05/14 11:15:01;;;;;;;7.13;4.40;;;;;;;;;;5074667;28;20551;-80
2023/05/14 11:17:27;;;;;;;10.55;4.10;;;;;;;;;;5075790;28;20082;-80
2023/05/14 11:19:54;;;;;;;5.35;3.70;;;;;;;;;;5075932;28;20036;-81
2023/05/14 11:22:20;;;;;;;3.85;3.00;;;;;;;;;;5081075;28;20127;-80
2023/05/14 11:24:45;;;;;;;7.22;4.47;;;;;;;;;;5076804;28;20162;-80
2023/05/14 11:27:11;;;;;;;6.57;3.92;;;;;;;;;;5081318;28;20024;-80
2023/05/14 11:29:37;;;;;;;4.72;2.95;;;;;;;;;;5080668;28;20468;-80
2023/05/14 11:32:06;;;;;;;8.80;4.60;;;;;;;;;;5072733;28;20732;-81
2023/05/14 11:34:33;;;;;;;5.57;3.88;;;;;;;;;;5076691;28;20460;-82
2023/05/14 11:37:01;;;;;;;7.13;4.50;;;;;;;;;;5074266;28;20509;-79
2023/05/14 11:39:27;;;;;;;5.53;3.50;;;;;;;;;;5078550;28;20114;-81
2023/05/14 11:41:52;;;;;;;5.03;2.95;;;;;;;;;;5078523;28;20099;-82
2023/05/14 11:44:18;;;;;;;4.45;2.83;;;;;;;;;;5081590;28;20028;-82
2023/05/14 11:46:56;;;;;;;5.18;3.83;;;;;;;;;;5070161;28;20036;-82
2023/05/14 11:49:24;;;;;;;5.15;3.80;;;;;;;;;;5072821;28;20024;-82
2023/05/14 11:51:57;;;;;;;5.13;2.95;;;;;;;;;;5080341;28;20024;-82
2023/05/14 11:54:24;;;;;;;4.30;3.17;;;;;;;;;;5077448;28;20081;-82
2023/05/14 11:56:51;;;;;;;5.10;3.22;;;;;;;;;;5080385;28;20034;-82
2023/05/14 11:59:18;;;;;;;3.85;2.47;;;;;;;;;;5071902;28;20029;-83
2023/05/14 12:01:47;;;;;;;6.35;3.42;;;;;;;;;;5072542;28;20103;-84
2023/05/14 12:04:13;;;;;;;4.50;2.95;;;;;;;;;;5077804;28;20036;-82
2023/05/14 12:06:39;;;;;;;5.38;3.08;;;;;;;;;;5082790;28;20392;-86
2023/05/14 12:09:05;;;;;;;8.30;3.72;;;;;;;;;;5077705;28;20051;-86
2023/05/14 12:11:31;;;;;;;4.60;3.00;;;;;;;;;;5076586;28;20035;-84
2023/05/14 12:13:58;;;;;;;3.65;2.92;;;;;;;;;;5082151;28;20027;-83
2023/05/14 12:16:30;;;;;;;4.18;3.00;;;;;;;;;;5078264;28;20086;-83
2023/05/14 12:18:59;;;;;;;5.22;2.88;;;;;;;;;;5080190;28;20058;-83
2023/05/14 12:21:26;;;;;;;6.32;2.97;;;;;;;;;;5080071;28;20097;-85
2023/05/14 12:23:58;;;;;;;3.38;2.30;;;;;;;;;;5087204;28;20029;-83
2023/05/14 12:26:25;;;;;;;5.22;3.00;;;;;;;;;;5073679;28;20032;-83
2023/05/14 12:28:58;;;;;;;3.88;2.90;;;;;;;;;;5085614;28;20072;-84
2023/05/14 12:31:28;;;;;;;3.50;2.78;;;;;;;;;;5085657;28;20028;-85
2023/05/14 12:33:53;;;;;;;4.50;2.70;;;;;;;;;;5082256;28;20024;-87
2023/05/14 12:36:19;;;;;;;5.20;2.92;;;;;;;;;;5081654;28;20072;-89
2023/05/14 12:38:44;;;;;;;4.13;2.70;;;;;;;;;;5083415;28;20152;-83
2023/05/14 12:41:10;;;;;;;4.00;2.78;;;;;;;;;;5075853;28;20024;-83
2023/05/14 12:43:35;;;;;;;3.40;2.47;;;;;;;;;;5087369;28;20101;-80
2023/05/14 12:46:01;;;;;;;5.82;3.55;;;;;;;;;;5076954;28;20030;-83
2023/05/14 12:48:26;;;;;;;4.55;3.10;;;;;;;;;;5084904;28;20039;-85
2023/05/14 12:50:52;;;;;;;4.60;3.15;;;;;;;;;;5077892;28;20395;-86
2023/05/14 12:53:17;;;;;;;5.00;3.38;;;;;;;;;;5077374;28;20551;-84
2023/05/14 12:55:42;;;;;;;4.25;3.35;;;;;;;;;;5079671;28;20038;-86
2023/05/14 12:58:08;;;;;;;4.70;2.80;;;;;;;;;;5081855;28;20423;-85
2023/05/14 13:00:34;;;;;;;4.68;3.35;;;;;;;;;;5074798;28;20033;-85
2023/05/14 13:02:59;;;;;;;6.78;4.07;;;;;;;;;;5078862;28;20028;-86
2023/05/14 13:05:25;;;;;;;4.60;3.42;;;;;;;;;;5082721;28;20032;-85
2023/05/14 13:07:52;;;;;;;6.43;3.72;;;;;;;;;;5084400;28;20081;-85
2023/05/14 13:10:17;;;;;;;6.30;3.70;;;;;;;;;;5080855;28;20031;-86
2023/05/14 13:12:43;;;;;;;5.85;3.80;;;;;;;;;;5076314;28;20020;-86
2023/05/14 13:15:09;;;;;;;5.70;3.55;;;;;;;;;;5073767;28;20103;-87
2023/05/14 13:17:35;;;;;;;6.20;3.95;;;;;;;;;;5074077;28;20028;-85
2023/05/14 13:20:00;;;;;;;4.82;3.35;;;;;;;;;;5079798;28;20024;-85
2023/05/14 13:22:26;;;;;;;5.05;3.53;;;;;;;;;;5083157;28;20443;-84
2023/05/14 13:24:51;;;;;;;4.47;3.15;;;;;;;;;;5074762;28;20027;-84
2023/05/14 13:27:16;;;;;;;5.18;3.55;;;;;;;;;;5086796;28;20024;-85
2023/05/14 13:29:42;;;;;;;4.28;3.33;;;;;;;;;;5083380;28;20020;-85
2023/05/14 13:32:07;;;;;;;6.93;3.95;;;;;;;;;;5083269;28;20467;-84
2023/05/14 13:34:33;;;;;;;4.63;3.17;;;;;;;;;;5077857;28;20024;-85
2023/05/14 13:36:58;;;;;;;6.13;3.97;;;;;;;;;;5077053;28;20051;-85
2023/05/14 13:39:25;;;;;;;4.57;3.30;;;;;;;;;;5078581;28;20056;-84
2023/05/14 13:41:54;;;;;;;6.68;3.58;;;;;;;;;;5070685;28;20033;-84
2023/05/14 13:44:20;;;;;;;5.05;3.17;;;;;;;;;;5074668;28;20056;-82
2023/05/14 13:46:45;;;;;;;5.57;3.78;;;;;;;;;;5079955;28;20068;-83
2023/05/14 13:49:11;;;;;;;4.07;2.80;;;;;;;;;;5069513;28;20029;-83
2023/05/14 13:51:36;;;;;;;5.85;3.92;;;;;;;;;;5079937;28;20079;-78
2023/05/14 13:54:02;;;;;;;5.22;3.17;;;;;;;;;;5073023;28;20027;-79
2023/05/14 13:56:27;;;;;;;7.53;4.78;;;;;;;;;;5085818;28;20067;-79
2023/05/14 13:58:53;;;;;;;7.47;4.53;;;;;;;;;;5074263;28;20028;-81
2023/05/14 14:01:18;;;;;;;6.00;4.15;;;;;;;;;;5076817;28;20028;-82
2023/05/14 14:03:44;;;;;;;7.22;4.70;;;;;;;;;;5074126;28;20426;-86
2023/05/14 14:06:10;;;;;;;10.15;5.55;;;;;;;;;;5084136;28;20024;-81
2023/05/14 14:08:36;;;;;;;7.70;5.18;;;;;;;;;;5080557;28;20027;-80
2023/05/14 14:11:01;;;;;;;14.82;7.97;;;;;;;;;;5073556;28;20113;-83
2023/05/14 14:13:28;;;;;;;16.08;7.63;;;;;;;;;;5074474;28;20029;-82
2023/05/14 14:15:53;;;;;;;10.75;5.70;;;;;;;;;;5073785;28;20036;-82
2023/05/14 14:18:19;;;;;;;11.23;5.07;;;;;;;;;;5075134;28;20020;-85
2023/05/14 14:20:44;;;;;;;8.70;4.95;;;;;;;;;;5078744;28;20024;-82
2023/05/14 14:23:09;;;;;;;10.90;6.32;;;;;;;;;;5079958;28;20028;-82
2023/05/14 14:25:35;;;;;;;10.05;5.70;;;;;;;;;;5075815;28;20032;-82
2023/05/14 14:28:00;;;;;;;10.27;4.97;;;;;;;;;;5075279;28;20067;-81
2023/05/14 14:30:26;;;;;;;6.35;4.00;;;;;;;;;;5080302;28;20016;-83
2023/05/14 14:32:51;;;;;;;6.03;4.05;;;;;;;;;;5068729;28;20031;-81
2023/05/14 14:35:18;;;;;;;7.18;4.85;;;;;;;;;;5082000;28;20024;-82
2023/05/14 14:37:47;;;;;;;6.85;4.47;;;;;;;;;;5078853;28;20537;-82
2023/05/14 14:40:13;;;;;;;7.75;5.13;;;;;;;;;;5085978;28;20486;-83